Time;durP1;ratioP1;P1;durP2;ratioP2;P2;SDS_P1;SDS_P2;PMS_P1;PMS_P2;Temp;Humidity;BMP_temperature;BMP_pressure;BME280_temperature;BME280_humidity;BME280_pressure;Samples;Min_cycle;Max_cycle;Signal;HPM_P1;HPM_P2
2022/12/03 00:00:25;;;;;;;10.10;4.23;;;;;;;-2.52;100.00;101326.56;1802420;79;21023;-68
2022/12/03 00:02:52;;;;;;;10.40;3.70;;;;;;;-2.54;100.00;101335.02;1804374;79;21030;-68
2022/12/03 00:05:20;;;;;;;10.80;4.33;;;;;;;-2.58;100.00;101327.66;1808202;79;21074;-66
2022/12/03 00:07:47;;;;;;;11.43;4.10;;;;;;;-2.60;100.00;101325.95;1801684;79;21514;-68
2022/12/03 00:10:14;;;;;;;11.20;4.43;;;;;;;-2.62;100.00;101334.42;1806434;78;21038;-68
2022/12/03 00:12:42;;;;;;;10.43;4.13;;;;;;;-2.62;100.00;101331.77;1802889;79;21520;-67
2022/12/03 00:15:10;;;;;;;13.23;4.43;;;;;;;-2.65;100.00;101334.09;1801095;79;21023;-68
2022/12/03 00:17:38;;;;;;;9.73;4.30;;;;;;;-2.68;100.00;101318.30;1804354;78;21010;-67
2022/12/03 00:20:10;;;;;;;13.47;4.60;;;;;;;-2.70;100.00;101326.77;1807776;78;21007;-68
2022/12/03 00:22:37;;;;;;;9.68;4.00;;;;;;;-2.72;100.00;101326.81;1777123;79;21045;-70
2022/12/03 00:25:06;;;;;;;15.63;4.37;;;;;;;-2.75;100.00;101322.94;1804491;79;21100;-68
2022/12/03 00:27:33;;;;;;;15.57;4.60;;;;;;;-2.75;100.00;101329.56;1805125;78;21006;-68
2022/12/03 00:30:00;;;;;;;10.47;4.50;;;;;;;-2.78;100.00;101316.46;1807315;79;21468;-67
2022/12/03 00:32:27;;;;;;;9.97;4.50;;;;;;;-2.80;100.00;101326.21;1800701;78;21017;-68
2022/12/03 00:34:55;;;;;;;11.07;4.20;;;;;;;-2.81;100.00;101322.32;1803693;79;21025;-67
2022/12/03 00:37:22;;;;;;;9.97;4.47;;;;;;;-2.84;100.00;101321.95;1801711;78;21515;-67
2022/12/03 00:39:49;;;;;;;8.37;4.63;;;;;;;-2.88;100.00;101309.75;1802586;79;21010;-67
2022/12/03 00:42:16;;;;;;;12.10;4.77;;;;;;;-2.91;100.00;101316.47;1814941;78;21018;-67
2022/12/03 00:44:44;;;;;;;11.73;4.77;;;;;;;-2.95;100.00;101317.50;1808161;77;21073;-68
2022/12/03 00:47:13;;;;;;;13.80;4.40;;;;;;;-2.98;100.00;101314.95;1798519;79;20974;-67
2022/12/03 00:49:40;;;;;;;12.27;4.60;;;;;;;-3.04;100.00;101308.57;1803093;79;21068;-68
2022/12/03 00:52:08;;;;;;;10.03;4.13;;;;;;;-3.08;100.00;101318.36;1804291;79;20995;-68
2022/12/03 00:54:35;;;;;;;11.07;4.53;;;;;;;-3.13;100.00;101313.72;1800093;78;20974;-68
2022/12/03 00:57:03;;;;;;;10.30;4.40;;;;;;;-3.16;100.00;101313.34;1806280;79;21026;-67
2022/12/03 00:59:32;;;;;;;16.00;5.10;;;;;;;-3.16;100.00;101308.05;1808265;78;21520;-68
2022/12/03 01:01:59;;;;;;;10.70;4.20;;;;;;;-3.18;100.00;101303.75;1805540;79;21512;-68
2022/12/03 01:04:26;;;;;;;13.93;4.70;;;;;;;-3.19;100.00;101307.30;1804040;79;21003;-67
2022/12/03 01:06:54;;;;;;;13.90;4.07;;;;;;;-3.22;100.00;101302.09;1806184;78;21041;-66
2022/12/03 01:09:21;;;;;;;15.40;6.20;;;;;;;-3.26;100.00;101299.58;1806050;79;20995;-68
2022/12/03 01:11:48;;;;;;;14.30;4.67;;;;;;;-3.26;100.00;101297.37;1801945;79;21069;-67
2022/12/03 01:14:18;;;;;;;16.57;5.50;;;;;;;-3.28;100.00;101284.66;1801458;79;21022;-68
2022/12/03 01:16:46;;;;;;;12.33;4.80;;;;;;;-3.32;100.00;101289.66;1805002;79;21041;-67
2022/12/03 01:19:14;;;;;;;13.00;5.33;;;;;;;-3.36;100.00;101291.54;1806110;79;21307;-68
2022/12/03 01:21:47;;;;;;;15.30;5.53;;;;;;;-3.38;100.00;101297.34;1800294;79;21491;-67
2022/12/03 01:24:14;;;;;;;13.50;4.83;;;;;;;-3.41;100.00;101288.19;1806682;79;21018;-68
2022/12/03 01:26:43;;;;;;;17.40;5.47;;;;;;;-3.41;100.00;101299.23;1802203;79;21115;-67
2022/12/03 01:29:11;;;;;;;17.03;5.40;;;;;;;-3.44;100.00;101293.09;1805811;79;21019;-68
2022/12/03 01:32:20;;;;;;;10.67;4.97;;;;;;;-3.46;100.00;101298.05;1801836;79;21048;-67
2022/12/03 01:34:11;;;;;;;;;;;;;;;-3.49;100.00;101296.81;1779815;79;21136;-68
2022/12/03 01:36:39;;;;;;;11.73;4.70;;;;;;;-3.52;100.00;101299.58;1808513;79;20094;-68
2022/12/03 01:39:06;;;;;;;14.83;5.73;;;;;;;-3.56;100.00;101294.86;1800140;79;20974;-67
2022/12/03 01:41:34;;;;;;;14.33;5.20;;;;;;;-3.64;100.00;101306.12;1809935;78;21022;-67
2022/12/03 01:44:01;;;;;;;14.27;5.50;;;;;;;-3.71;100.00;101298.84;1805368;79;21167;-67
2022/12/03 01:46:38;;;;;;;15.30;4.90;;;;;;;-3.74;100.00;101302.89;1772734;79;21448;-67
2022/12/03 01:49:05;;;;;;;12.47;5.70;;;;;;;-3.78;100.00;101312.31;1778365;79;20983;-68
2022/12/03 01:51:32;;;;;;;12.67;5.03;;;;;;;-3.83;100.00;101323.02;1810599;79;21492;-67
2022/12/03 01:54:00;;;;;;;17.27;5.37;;;;;;;-3.86;100.00;101320.02;1809921;78;21029;-67
2022/12/03 01:56:27;;;;;;;14.83;6.17;;;;;;;-3.91;100.00;101315.77;1802883;79;21066;-68
2022/12/03 01:58:54;;;;;;;15.67;5.73;;;;;;;-3.92;100.00;101316.70;1804071;79;21041;-68
2022/12/03 02:01:22;;;;;;;18.80;6.37;;;;;;;-3.97;100.00;101337.97;1804615;79;21029;-68
2022/12/03 02:03:49;;;;;;;19.53;5.90;;;;;;;-4.03;100.00;101335.06;1813217;79;21049;-67
2022/12/03 02:06:20;;;;;;;17.20;6.00;;;;;;;-4.06;100.00;101327.69;1800026;78;21505;-67
2022/12/03 02:08:48;;;;;;;14.97;5.00;;;;;;;-4.09;100.00;101318.52;1804136;79;21469;-68
2022/12/03 02:11:34;;;;;;;13.67;5.10;;;;;;;-4.14;100.00;101320.00;1806743;79;21073;-67
2022/12/03 02:14:05;;;;;;;13.80;5.23;;;;;;;-4.18;100.00;101326.27;1807104;78;21536;-68
2022/12/03 02:16:35;;;;;;;17.00;6.43;;;;;;;-4.26;100.00;101330.46;1807862;78;21500;-68
2022/12/03 02:19:02;;;;;;;18.23;5.47;;;;;;;-4.34;100.00;101336.41;1779888;79;21041;-64
2022/12/03 02:21:35;;;;;;;17.17;6.20;;;;;;;-4.47;100.00;101339.86;1801707;79;21433;-67
2022/12/03 02:24:13;;;;;;;13.93;5.30;;;;;;;-4.58;100.00;101339.30;1803201;79;21027;-67
2022/12/03 02:26:40;;;;;;;16.17;5.77;;;;;;;-4.69;100.00;101336.08;1810118;78;21492;-67
2022/12/03 02:29:07;;;;;;;16.90;6.40;;;;;;;-4.77;100.00;101329.70;1805217;79;21023;-67
2022/12/03 02:31:34;;;;;;;14.33;5.70;;;;;;;-4.85;100.00;101332.56;1804093;79;21014;-67
2022/12/03 02:34:07;;;;;;;17.43;6.27;;;;;;;-4.90;100.00;101319.08;1805464;78;21500;-66
2022/12/03 02:36:35;;;;;;;13.33;5.80;;;;;;;-4.94;100.00;101309.49;1806633;79;21038;-67
2022/12/03 02:39:02;;;;;;;15.93;6.40;;;;;;;-5.01;100.00;101284.61;1803012;79;20994;-67
2022/12/03 02:44:15;;;;;;;13.97;5.80;;;;;;;-5.14;100.00;101271.33;1803284;78;21505;-67
2022/12/03 02:46:42;;;;;;;13.70;5.23;;;;;;;-5.19;100.00;101267.94;1802417;79;21070;-67
2022/12/03 02:49:10;;;;;;;14.70;6.07;;;;;;;-5.21;100.00;101266.66;1805029;79;21027;-67
2022/12/03 02:51:37;;;;;;;15.07;5.07;;;;;;;-5.22;100.00;101257.50;1802539;79;21035;-67
2022/12/03 02:54:05;;;;;;;15.90;5.97;;;;;;;-5.23;100.00;101253.12;1801370;79;21030;-67
2022/12/03 02:56:32;;;;;;;15.60;5.47;;;;;;;-5.30;100.00;101261.64;1809694;78;21017;-67
2022/12/03 02:59:01;;;;;;;18.07;6.03;;;;;;;-5.37;100.00;101249.06;1802652;79;21039;-67
2022/12/03 03:01:29;;;;;;;15.10;5.83;;;;;;;-5.42;100.00;101247.02;1803114;79;20966;-67
2022/12/03 03:03:56;;;;;;;13.17;5.47;;;;;;;-5.47;100.00;101248.91;1803892;78;21071;-67
2022/12/03 03:06:23;;;;;;;17.03;5.77;;;;;;;-5.47;100.00;101250.66;1801694;79;21100;-66
2022/12/03 03:08:50;;;;;;;16.60;6.10;;;;;;;-5.49;100.00;101252.01;1815500;78;21011;-67
2022/12/03 03:11:17;;;;;;;13.63;5.53;;;;;;;-5.52;100.00;101238.93;1806985;78;21051;-67
2022/12/03 03:13:44;;;;;;;15.07;5.73;;;;;;;-5.57;100.00;101250.89;1801399;79;21056;-66
2022/12/03 03:16:11;;;;;;;14.17;6.00;;;;;;;-5.59;100.00;101246.58;1800597;78;21034;-65
2022/12/03 03:18:39;;;;;;;13.90;5.57;;;;;;;-5.63;100.00;101240.95;1805061;79;21468;-67
2022/12/03 03:21:06;;;;;;;15.37;6.23;;;;;;;-5.66;100.00;101237.10;1805621;78;21013;-66
2022/12/03 03:23:33;;;;;;;13.93;5.10;;;;;;;-5.69;100.00;101237.17;1803794;79;21059;-66
2022/12/03 03:26:06;;;;;;;14.20;5.40;;;;;;;-5.70;100.00;101235.00;1802628;79;21008;-67
2022/12/03 03:28:42;;;;;;;;;;;;;;;-5.70;100.00;101230.16;1804574;79;21030;-67
2022/12/03 03:31:10;;;;;;;15.30;5.17;;;;;;;-5.72;100.00;101236.78;1802413;79;20102;-66
2022/12/03 03:33:38;;;;;;;13.07;5.40;;;;;;;-5.75;100.00;101237.73;1810114;78;21102;-65
2022/12/03 03:36:06;;;;;;;15.70;5.20;;;;;;;-5.77;100.00;101238.23;1815791;79;21014;-67
2022/12/03 03:38:33;;;;;;;16.30;5.60;;;;;;;-5.79;100.00;101239.15;1773936;79;20978;-66
2022/12/03 03:41:01;;;;;;;12.50;4.37;;;;;;;-5.83;100.00;101243.63;1803349;79;21003;-65
2022/12/03 03:43:28;;;;;;;13.30;5.80;;;;;;;-5.85;100.00;101241.48;1802871;78;21007;-66
2022/12/03 03:45:56;;;;;;;17.07;6.27;;;;;;;-5.88;100.00;101234.97;1802958;78;21047;-66
2022/12/03 03:48:23;;;;;;;13.33;5.20;;;;;;;-5.91;100.00;101234.61;1800681;79;21031;-66
2022/12/03 03:50:50;;;;;;;14.10;5.87;;;;;;;-5.95;100.00;101239.55;1802498;79;21477;-66
2022/12/03 03:53:17;;;;;;;12.63;5.53;;;;;;;-5.98;100.00;101242.27;1801122;79;21027;-67
2022/12/03 03:55:44;;;;;;;13.90;5.23;;;;;;;-6.01;100.00;101240.16;1805563;79;21031;-67
2022/12/03 03:58:11;;;;;;;9.77;4.90;;;;;;;-6.05;100.00;101236.73;1805920;79;21058;-66
2022/12/03 04:00:38;;;;;;;12.00;5.20;;;;;;;-6.08;100.00;101249.97;1807599;78;21492;-65
2022/12/03 04:03:05;;;;;;;15.70;5.90;;;;;;;-6.10;100.00;101246.51;1803497;79;20998;-67
2022/12/03 04:05:32;;;;;;;15.53;5.60;;;;;;;-6.11;100.00;101234.23;1801220;79;21005;-66
2022/12/03 04:08:00;;;;;;;14.87;5.50;;;;;;;-6.11;100.00;101249.61;1801523;79;21470;-66
2022/12/03 04:13:12;;;;;;;16.30;6.27;;;;;;;-6.14;100.00;101243.55;1799993;78;21488;-66
2022/12/03 04:15:39;;;;;;;12.00;4.80;;;;;;;-6.16;100.00;101246.20;1808348;79;21025;-66
2022/12/03 04:22:38;;;;;;;13.33;5.43;;;;;;;-6.19;100.00;101239.69;1809964;79;21006;-67
2022/12/03 04:23:21;;;;;;;12.57;4.77;;;;;;;-6.19;100.00;101241.46;1796234;79;21051;-67
2022/12/03 04:28:50;;;;;;;12.03;4.77;;;;;;;-6.22;100.00;101240.20;1806925;79;21081;-66
2022/12/03 04:36:48;;;;;;;12.70;4.60;;;;;;;-6.27;100.00;101252.61;1806617;79;21477;-66
2022/12/03 04:39:16;;;;;;;10.20;4.20;;;;;;;-6.28;100.00;101253.06;1802490;79;21531;-68
2022/12/03 04:41:43;;;;;;;12.90;4.70;;;;;;;-6.29;100.00;101251.32;1795679;79;21018;-67
2022/12/03 04:46:55;;;;;;;10.30;4.70;;;;;;;-6.31;100.00;101247.40;1801260;79;21053;-67
2022/12/03 04:49:22;;;;;;;13.53;4.80;;;;;;;-6.32;100.00;101251.38;1803289;79;21062;-68
2022/12/03 04:51:50;;;;;;;10.87;4.60;;;;;;;-6.34;100.00;101248.81;1799122;79;20997;-66
2022/12/03 04:54:17;;;;;;;11.97;5.00;;;;;;;-6.35;100.00;101248.38;1805947;79;21044;-68
2022/12/03 04:56:44;;;;;;;11.10;5.13;;;;;;;-6.36;100.00;101251.89;1799580;78;21033;-67
2022/12/03 04:59:13;;;;;;;11.10;4.43;;;;;;;-6.35;100.00;101252.78;1802168;79;20995;-67
2022/12/03 05:01:40;;;;;;;13.30;5.00;;;;;;;-6.36;100.00;101253.22;1802639;79;21023;-66
2022/12/03 05:04:07;;;;;;;13.87;5.20;;;;;;;-6.37;100.00;101248.01;1806578;79;21053;-66
2022/12/03 05:06:35;;;;;;;8.57;4.50;;;;;;;-6.36;100.00;101252.36;1812707;78;21026;-67
2022/12/03 05:09:02;;;;;;;11.00;4.50;;;;;;;-6.38;100.00;101256.33;1801282;79;21017;-67
2022/12/03 05:11:29;;;;;;;13.87;4.30;;;;;;;-6.38;100.00;101257.65;1802875;79;21129;-67
2022/12/03 05:13:56;;;;;;;9.60;4.50;;;;;;;-6.38;100.00;101254.16;1804207;79;21064;-66
2022/12/03 05:16:24;;;;;;;12.57;4.50;;;;;;;-6.37;100.00;101261.17;1801608;79;21715;-66
2022/12/03 05:18:51;;;;;;;11.63;4.50;;;;;;;-6.37;100.00;101250.64;1812801;79;21014;-66
2022/12/03 05:21:18;;;;;;;13.37;4.07;;;;;;;-6.37;100.00;101250.64;1814703;79;21035;-66
2022/12/03 05:23:45;;;;;;;10.63;4.40;;;;;;;-6.36;100.00;101253.22;1802565;78;21036;-66
2022/12/03 05:26:14;;;;;;;8.97;4.20;;;;;;;-6.34;100.00;101254.50;1808362;79;21050;-67
2022/12/03 05:28:41;;;;;;;8.00;4.03;;;;;;;-6.34;100.00;101255.39;1801714;79;21067;-67
2022/12/03 05:31:08;;;;;;;11.50;4.37;;;;;;;-6.34;100.00;101252.76;1804753;79;21030;-65
2022/12/03 05:33:35;;;;;;;11.00;4.67;;;;;;;-6.32;100.00;101257.53;1801888;79;21025;-67
2022/12/03 05:36:03;;;;;;;12.23;4.77;;;;;;;-6.33;100.00;101255.78;1805647;78;21440;-66
2022/12/03 05:38:30;;;;;;;8.93;3.90;;;;;;;-6.31;100.00;101256.61;1803785;79;21018;-68
2022/12/03 05:40:57;;;;;;;11.47;4.50;;;;;;;-6.28;100.00;101264.91;1804535;78;21022;-67
2022/12/03 05:43:25;;;;;;;10.10;4.27;;;;;;;-6.27;100.00;101260.05;1814213;79;21046;-67
2022/12/03 05:45:52;;;;;;;9.33;4.47;;;;;;;-6.23;100.00;101274.00;1806351;79;21092;-67
2022/12/03 05:48:20;;;;;;;11.00;4.10;;;;;;;-6.21;100.00;101262.55;1803157;79;21017;-67
2022/12/03 05:50:47;;;;;;;6.67;3.60;;;;;;;-6.19;100.00;101259.89;1814599;79;21069;-67
2022/12/03 05:53:14;;;;;;;9.03;3.83;;;;;;;-6.18;100.00;101262.92;1805877;78;21060;-67
2022/12/03 05:55:41;;;;;;;10.43;4.47;;;;;;;-6.15;100.00;101251.02;1808754;79;21507;-67
2022/12/03 05:58:09;;;;;;;10.47;4.03;;;;;;;-6.12;100.00;101259.70;1803995;79;21012;-67
2022/12/03 06:00:38;;;;;;;8.87;4.07;;;;;;;-6.09;100.00;101271.06;1799849;79;21508;-66
2022/12/03 06:03:05;;;;;;;12.67;4.03;;;;;;;-6.06;100.00;101278.91;1806040;79;21027;-67
2022/12/03 06:05:33;;;;;;;12.13;3.93;;;;;;;-6.02;100.00;101276.61;1803890;79;21027;-66
2022/12/03 06:08:03;;;;;;;11.53;4.07;;;;;;;-5.99;100.00;101276.55;1798510;77;21013;-66
2022/12/03 06:10:31;;;;;;;5.57;3.30;;;;;;;-5.96;100.00;101276.48;1809951;79;21030;-67
2022/12/03 06:13:01;;;;;;;12.77;4.07;;;;;;;-5.92;100.00;101284.69;1812759;79;21019;-66
2022/12/03 06:38:33;;;;;;;12.83;4.30;;;;;;;-5.43;100.00;101278.69;1837679;77;22863;-66
2022/12/03 06:41:01;;;;;;;8.10;4.20;;;;;;;-5.37;100.00;101283.33;1795790;79;21026;-66
2022/12/03 06:43:29;;;;;;;11.57;4.57;;;;;;;-5.31;100.00;101295.95;1795799;79;21073;-66
2022/12/03 06:45:57;;;;;;;13.07;4.20;;;;;;;-5.27;100.00;101310.34;1796038;79;21488;-67
2022/12/03 06:48:26;;;;;;;5.80;3.37;;;;;;;-5.26;100.00;101314.73;1795496;79;21559;-65
2022/12/03 06:50:53;;;;;;;8.23;4.03;;;;;;;-5.25;100.00;101317.76;1796051;79;21198;-65
2022/12/03 06:53:21;;;;;;;9.63;4.40;;;;;;;-5.21;100.00;101327.31;1795665;80;21027;-65
2022/12/03 06:55:48;;;;;;;8.13;3.73;;;;;;;-5.17;100.00;101328.98;1795419;79;21026;-64
2022/12/03 06:58:15;;;;;;;9.60;3.87;;;;;;;-5.09;100.00;101329.24;1795784;79;21147;-66
2022/12/03 07:00:42;;;;;;;7.77;4.00;;;;;;;-5.04;100.00;101346.67;1796039;79;21417;-66
2022/12/03 07:03:09;;;;;;;5.27;3.07;;;;;;;-4.99;100.00;101348.75;1795673;80;21038;-66
2022/12/03 07:05:37;;;;;;;7.40;3.53;;;;;;;-4.91;100.00;101363.51;1796092;80;21049;-65
2022/12/03 07:08:05;;;;;;;16.87;5.43;;;;;;;-4.84;100.00;101361.12;1795393;79;21006;-66
2022/12/03 07:10:34;;;;;;;18.40;5.97;;;;;;;-4.74;100.00;101361.30;1794855;79;21162;-65
2022/12/03 07:13:01;;;;;;;8.20;3.83;;;;;;;-4.63;100.00;101367.60;1795742;80;21033;-65
2022/12/03 07:15:29;;;;;;;11.73;4.23;;;;;;;-4.50;100.00;101363.70;1794457;79;21093;-65
2022/12/03 07:17:56;;;;;;;28.37;12.93;;;;;;;-4.39;100.00;101388.52;1794222;79;22115;-65
2022/12/03 07:20:23;;;;;;;16.37;6.60;;;;;;;-4.31;100.00;101402.81;1794410;79;21020;-66
2022/12/03 07:22:50;;;;;;;11.27;4.40;;;;;;;-4.21;100.00;101414.86;1793609;79;21043;-66
2022/12/03 07:25:17;;;;;;;13.73;5.03;;;;;;;-4.10;100.00;101422.48;1792835;80;21599;-66
2022/12/03 07:27:44;;;;;;;13.40;6.20;;;;;;;-3.98;100.00;101438.42;1793761;80;21067;-67
2022/12/03 07:30:14;;;;;;;8.63;3.80;;;;;;;-3.86;100.00;101452.17;1793957;80;21462;-66
2022/12/03 07:32:41;;;;;;;10.53;4.60;;;;;;;-3.75;100.00;101450.97;1793957;80;21454;-66
2022/12/03 07:35:08;;;;;;;12.50;4.83;;;;;;;-3.62;100.00;101468.22;1794335;80;21450;-66
2022/12/03 07:37:35;;;;;;;10.17;4.50;;;;;;;-3.49;100.00;101497.36;1791469;80;21107;-66
2022/12/03 07:40:04;;;;;;;8.90;4.10;;;;;;;-3.37;100.00;101484.20;1788789;80;21071;-66
2022/12/03 07:42:31;;;;;;;8.80;3.60;;;;;;;-3.28;100.00;101506.41;1789011;80;21016;-67
2022/12/03 07:44:58;;;;;;;8.97;3.50;;;;;;;-3.16;100.00;101537.39;1789151;80;21020;-66
2022/12/03 07:47:25;;;;;;;7.93;2.97;;;;;;;-3.05;100.00;101555.12;1788747;80;21043;-67
2022/12/03 07:49:52;;;;;;;8.37;3.67;;;;;;;-2.92;100.00;101541.93;1788410;80;21032;-67
2022/12/03 07:52:21;;;;;;;8.40;3.63;;;;;;;-2.72;100.00;101551.02;1787992;80;21039;-67
2022/12/03 07:54:48;;;;;;;8.83;4.03;;;;;;;-2.46;100.00;101549.30;1788498;80;21044;-67
2022/12/03 07:57:15;;;;;;;8.27;3.27;;;;;;;-2.24;100.00;101575.49;1788120;80;21157;-67
2022/12/03 07:59:42;;;;;;;10.00;3.90;;;;;;;-2.11;100.00;101578.15;1788586;80;21040;-66
2022/12/03 08:02:10;;;;;;;7.43;3.70;;;;;;;-1.99;100.00;101590.09;1787996;80;21058;-67
2022/12/03 08:04:38;;;;;;;13.03;3.83;;;;;;;-1.78;100.00;101603.08;1769888;79;21070;-66
2022/12/03 08:07:05;;;;;;;7.97;3.93;;;;;;;-1.63;100.00;101618.92;1752302;82;20986;-67
2022/12/03 08:09:32;;;;;;;13.17;3.93;;;;;;;-1.55;100.00;101627.45;1753277;82;21519;-67
2022/12/03 08:12:02;;;;;;;13.33;5.47;;;;;;;-1.47;100.00;101635.17;1753028;82;21135;-67
2022/12/03 08:14:29;;;;;;;9.07;3.20;;;;;;;-1.44;100.00;101648.77;1752692;82;21017;-67
2022/12/03 08:16:56;;;;;;;7.73;3.40;;;;;;;-1.42;100.00;101677.44;1722529;82;21325;-67
2022/12/03 08:19:24;;;;;;;6.83;3.73;;;;;;;-1.42;100.00;101696.87;1755418;79;20971;-66
2022/12/03 08:21:51;;;;;;;6.77;3.20;;;;;;;-1.45;100.00;101702.31;1698526;82;21018;-66
2022/12/03 08:24:20;;;;;;;12.03;4.40;;;;;;;-1.50;100.00;101712.20;1753199;82;21069;-67
2022/12/03 08:26:47;;;;;;;11.30;4.10;;;;;;;-1.44;100.00;101713.78;1753082;82;21026;-67
2022/12/03 08:29:19;;;;;;;13.87;4.57;;;;;;;-1.39;100.00;101721.13;1753039;82;21057;-65
2022/12/03 08:31:54;;;;;;;7.53;3.50;;;;;;;-1.27;100.00;101712.73;1752863;82;21010;-66
2022/12/03 08:34:23;;;;;;;12.50;3.80;;;;;;;-1.12;100.00;101724.58;1753007;82;21531;-65
2022/12/03 08:36:53;;;;;;;7.77;3.50;;;;;;;-1.07;100.00;101723.96;1752945;81;21001;-67
2022/12/03 08:39:36;;;;;;;9.00;3.47;;;;;;;-1.00;100.00;101734.77;1755929;82;21534;-66
2022/12/03 08:42:41;;;;;;;;;;;;;;;-0.88;100.00;101733.46;1758916;82;21539;-67
2022/12/03 08:45:38;;;;;;;10.03;3.93;;;;;;;-0.70;100.00;101733.71;1755913;82;20124;-66
2022/12/03 08:48:15;;;;;;;9.37;4.17;;;;;;;-0.62;100.00;101748.88;1754404;80;21088;-66
2022/12/03 08:50:42;;;;;;;10.23;3.80;;;;;;;-0.64;100.00;101743.66;1739281;82;21007;-67
2022/12/03 08:53:47;;;;;;;11.37;3.60;;;;;;;-0.65;100.00;101756.99;1756105;82;21480;-67
2022/12/03 08:56:27;;;;;;;9.13;3.70;;;;;;;-0.69;100.00;101758.01;1755153;82;21025;-67
2022/12/03 08:59:19;;;;;;;10.53;4.30;;;;;;;-0.77;100.00;101756.97;1755512;82;21045;-67
2022/12/03 09:01:46;;;;;;;7.40;3.20;;;;;;;-0.83;100.00;101760.73;1756513;82;21519;-67
2022/12/03 09:04:45;;;;;;;4.47;3.03;;;;;;;-0.80;100.00;101757.08;1755331;82;20986;-66
2022/12/03 09:07:12;;;;;;;8.13;3.33;;;;;;;-0.86;100.00;101758.64;1756170;80;21452;-67
2022/12/03 09:09:39;;;;;;;11.87;4.20;;;;;;;-0.88;100.00;101755.18;1756086;82;21038;-68
2022/12/03 09:12:06;;;;;;;11.13;4.00;;;;;;;-0.90;100.00;101772.50;1756251;82;21060;-67
2022/12/03 09:14:34;;;;;;;6.40;2.97;;;;;;;-0.85;100.00;101771.88;1755976;82;21034;-66
2022/12/03 09:17:01;;;;;;;11.97;3.73;;;;;;;-0.77;100.00;101761.81;1756110;82;21033;-68
2022/12/03 09:19:31;;;;;;;10.80;3.77;;;;;;;-0.66;100.00;101763.22;1767448;80;21048;-67
2022/12/03 09:21:58;;;;;;;13.67;4.00;;;;;;;-0.56;100.00;101763.29;1787440;80;21017;-67
2022/12/03 09:24:25;;;;;;;7.03;4.07;;;;;;;-0.50;100.00;101755.06;1787319;80;21041;-68
2022/12/03 09:26:54;;;;;;;8.63;4.53;;;;;;;-0.39;100.00;101758.20;1787153;80;21029;-67
2022/12/03 09:29:22;;;;;;;11.57;4.50;;;;;;;-0.26;100.00;101757.27;1758789;80;21057;-68
2022/12/03 09:31:49;;;;;;;16.43;5.63;;;;;;;-0.11;100.00;101761.58;1786578;80;21049;-68
2022/12/03 09:34:16;;;;;;;18.83;5.30;;;;;;;-0.04;100.00;101753.28;1787241;80;21044;-67
2022/12/03 09:36:44;;;;;;;11.57;4.83;;;;;;;-0.02;100.00;101755.89;1784844;79;21015;-67
2022/12/03 09:39:12;;;;;;;14.47;5.40;;;;;;;-0.02;100.00;101759.44;1773591;80;21058;-67
2022/12/03 09:41:39;;;;;;;9.67;4.63;;;;;;;0.04;100.00;101761.45;1775559;80;21007;-67
2022/12/03 09:44:06;;;;;;;16.50;5.80;;;;;;;0.07;100.00;101771.95;1781680;80;21031;-67
2022/12/03 09:46:34;;;;;;;19.43;7.90;;;;;;;0.09;100.00;101769.64;1781292;80;21038;-66
2022/12/03 09:49:02;;;;;;;17.20;5.23;;;;;;;0.24;100.00;101766.81;1781613;79;21015;-66
2022/12/03 09:51:33;;;;;;;15.03;4.77;;;;;;;0.36;100.00;101775.63;1766909;80;21005;-68
2022/12/03 09:54:12;;;;;;;9.90;4.13;;;;;;;0.35;100.00;101776.58;1787085;79;20993;-68
2022/12/03 09:56:51;;;;;;;14.17;4.90;;;;;;;0.33;100.00;101786.87;1742988;82;21081;-65
2022/12/03 09:59:28;;;;;;;7.63;3.63;;;;;;;0.37;100.00;101786.69;1744441;82;21018;-66
2022/12/03 10:01:58;;;;;;;10.20;4.27;;;;;;;0.40;100.00;101790.16;1745610;80;21126;-65
2022/12/03 10:04:27;;;;;;;11.27;4.87;;;;;;;0.42;100.00;101791.80;1781603;79;20959;-66
2022/12/03 10:07:12;;;;;;;7.80;3.80;;;;;;;0.35;100.00;101791.66;1781755;80;21007;-65
2022/12/03 10:09:52;;;;;;;9.97;4.40;;;;;;;0.42;100.00;101771.84;1781328;80;21027;-66
2022/12/03 10:12:24;;;;;;;7.97;3.57;;;;;;;0.42;100.00;101784.30;1781559;80;21027;-65
2022/12/03 10:14:54;;;;;;;11.93;4.97;;;;;;;0.35;100.00;101795.65;1781227;80;21053;-65
2022/12/03 10:17:25;;;;;;;11.13;4.90;;;;;;;0.37;100.00;101784.47;1721689;82;21091;-64
2022/12/03 10:19:54;;;;;;;18.67;5.83;;;;;;;0.43;100.00;101794.88;1716985;82;21564;-66
2022/12/03 10:22:21;;;;;;;8.33;3.70;;;;;;;0.46;100.00;101780.56;1744731;82;21046;-64
2022/12/03 10:24:51;;;;;;;9.63;4.10;;;;;;;0.48;100.00;101784.03;1742912;82;21078;-65
2022/12/03 10:27:28;;;;;;;6.77;3.43;;;;;;;0.54;100.00;101786.45;1715849;82;21132;-66
2022/12/03 10:29:59;;;;;;;9.93;4.00;;;;;;;0.57;100.00;101790.33;1779535;80;21058;-66
2022/12/03 10:32:39;;;;;;;11.13;3.90;;;;;;;0.52;100.00;101786.98;1780094;80;21101;-66
2022/12/03 10:35:11;;;;;;;10.10;3.90;;;;;;;0.42;100.00;101785.63;1779252;80;21077;-67
2022/12/03 10:37:58;;;;;;;6.67;3.70;;;;;;;0.34;100.00;101785.95;1782675;80;21085;-66
2022/12/03 10:40:30;;;;;;;9.90;4.03;;;;;;;0.31;100.00;101780.27;1793656;79;21085;-66
2022/12/03 10:43:23;;;;;;;8.55;4.00;;;;;;;0.32;100.00;101779.80;1792552;80;21023;-66
2022/12/03 10:46:03;;;;;;;8.15;3.92;;;;;;;0.44;100.00;101783.29;1792673;80;21115;-66
2022/12/03 10:48:31;;;;;;;7.57;3.93;;;;;;;0.51;100.00;101786.13;1793221;80;21470;-66
2022/12/03 10:51:05;;;;;;;6.70;3.53;;;;;;;0.44;100.00;101786.42;1793694;80;21067;-67
2022/12/03 10:53:35;;;;;;;6.73;4.20;;;;;;;0.44;100.00;101783.77;1793521;80;21020;-66
2022/12/03 10:56:05;;;;;;;10.00;4.80;;;;;;;0.53;100.00;101786.93;1793867;80;20968;-67
2022/12/03 10:58:36;;;;;;;10.97;4.13;;;;;;;0.62;100.00;101784.80;1793715;80;21023;-67
2022/12/03 11:01:14;;;;;;;9.20;4.07;;;;;;;0.61;100.00;101786.59;1793811;80;21016;-67
2022/12/03 11:03:45;;;;;;;9.17;4.40;;;;;;;0.64;100.00;101782.92;1793742;80;21031;-67
2022/12/03 11:33:01;;;;;;;8.70;4.23;;;;;;;0.37;100.00;101785.36;1805021;79;22955;-73
2022/12/03 11:35:39;;;;;;;17.40;5.20;;;;;;;0.44;100.00;101780.62;1794161;80;21026;-75
2022/12/03 11:38:40;;;;;;;13.37;5.23;;;;;;;0.46;100.00;101789.88;1797290;79;21089;-76
2022/12/03 11:41:32;;;;;;;14.60;5.13;;;;;;;0.52;100.00;101788.31;1802292;80;21050;-75
2022/12/03 11:44:08;;;;;;;11.50;5.00;;;;;;;0.67;100.00;101795.64;1801029;80;21056;-78
2022/12/03 11:46:46;;;;;;;11.73;4.80;;;;;;;0.99;100.00;101796.06;1795156;79;21001;-76
2022/12/03 11:49:38;;;;;;;14.13;4.80;;;;;;;1.05;100.00;101791.82;1802018;79;21057;-76
2022/12/03 11:52:21;;;;;;;12.33;4.80;;;;;;;1.13;100.00;101788.81;1796142;80;21053;-75
2022/12/03 11:55:03;;;;;;;11.37;4.53;;;;;;;1.70;100.00;101783.13;1800877;79;21033;-75
2022/12/03 11:57:34;;;;;;;9.83;4.40;;;;;;;2.00;100.00;101783.97;1798770;80;21006;-75
2022/12/03 12:00:11;;;;;;;10.73;4.43;;;;;;;2.38;100.00;101791.91;1802303;80;21072;-76
2022/12/03 12:02:42;;;;;;;9.20;4.37;;;;;;;2.49;100.00;101791.38;1801971;80;21040;-76
2022/12/03 12:05:23;;;;;;;9.43;4.20;;;;;;;2.26;100.00;101803.19;1801392;80;20966;-76
2022/12/03 12:07:50;;;;;;;9.47;5.03;;;;;;;2.14;100.00;101806.44;1799712;79;21061;-75
2022/12/03 12:10:39;;;;;;;11.07;4.77;;;;;;;2.06;100.00;101804.16;1801239;79;21049;-74
2022/12/03 12:13:36;;;;;;;9.70;4.20;;;;;;;2.08;100.00;101810.27;1800313;80;21084;-75
2022/12/03 12:16:05;;;;;;;;;;;;;;;2.02;100.00;101808.77;1773107;80;21050;-75
2022/12/03 12:18:55;;;;;;;10.73;4.20;;;;;;;1.71;100.00;101806.66;1758859;81;20158;-74
2022/12/03 12:21:46;;;;;;;7.70;4.30;;;;;;;1.41;100.00;101816.44;1758436;80;21086;-74
2022/12/03 12:24:44;;;;;;;9.53;4.60;;;;;;;1.18;100.00;101822.78;1729998;82;21018;-73
2022/12/03 12:27:15;;;;;;;10.30;4.93;;;;;;;0.93;100.00;101816.33;1758016;82;21053;-74
2022/12/03 12:29:48;;;;;;;9.90;4.90;;;;;;;0.86;100.00;101815.71;1755084;80;21049;-73
2022/12/03 12:32:16;;;;;;;14.37;5.40;;;;;;;0.92;100.00;101813.25;1757321;81;21109;-74
2022/12/03 12:34:47;;;;;;;12.13;5.23;;;;;;;1.02;100.00;101806.59;1757170;82;21097;-73
2022/12/03 12:37:35;;;;;;;12.60;5.40;;;;;;;1.04;100.00;101818.05;1756738;82;21061;-72